createdAt,value
2023-03-26T00:09:33.883Z,9.04
2023-03-26T00:15:28.810Z,9.07
2023-03-26T00:17:58.784Z,9.04
2023-03-26T00:20:34.782Z,9.03
2023-03-26T00:23:28.999Z,9.05
2023-03-26T00:29:49.304Z,9.10
2023-03-26T00:32:21.023Z,9.14
2023-03-26T00:35:55.528Z,9.20
2023-03-26T00:38:38.369Z,9.20
2023-03-26T00:41:29.722Z,9.21
2023-03-26T00:47:45.008Z,9.15
2023-03-26T00:50:48.755Z,9.20
2023-03-26T00:53:24.851Z,9.19
2023-03-26T00:56:56.589Z,9.22
2023-03-26T01:03:00.569Z,9.25
2023-03-26T01:06:12.064Z,9.23
2023-03-26T01:11:50.494Z,9.25
2023-03-26T01:14:54.791Z,9.24
2023-03-26T01:17:41.540Z,9.23
2023-03-26T01:20:27.605Z,9.24
2023-03-26T01:23:08.562Z,9.22
2023-03-26T01:25:48.763Z,9.27
2023-03-26T01:32:26.888Z,9.29
2023-03-26T01:35:37.535Z,9.27
2023-03-26T01:46:26.025Z,9.27
2023-03-26T01:49:05.228Z,9.28
2023-03-26T01:51:53.616Z,9.28
2023-03-26T01:54:41.931Z,9.30
2023-03-26T01:57:24.179Z,9.33
2023-03-26T02:00:10.017Z,9.38
2023-03-26T02:02:55.738Z,9.35
2023-03-26T02:05:53.534Z,9.37
2023-03-26T02:08:24.488Z,9.33
2023-03-26T02:10:57.181Z,9.32
2023-03-26T02:13:26.369Z,9.32
2023-03-26T02:16:01.197Z,9.37
2023-03-26T02:18:29.411Z,9.32
2023-03-26T02:20:56.259Z,9.31
2023-03-26T02:23:23.333Z,9.32
2023-03-26T02:25:54.377Z,9.37
2023-03-26T02:28:21.668Z,9.36
2023-03-26T02:30:48.520Z,9.39
2023-03-26T02:33:19.214Z,9.39
2023-03-26T02:35:46.799Z,9.38
2023-03-26T02:41:06.234Z,9.34
2023-03-26T02:43:48.829Z,9.33
2023-03-26T02:46:21.284Z,9.33
2023-03-26T02:49:11.270Z,9.33
2023-03-26T02:51:39.124Z,9.31
2023-03-26T02:54:17.600Z,9.32
2023-03-26T02:56:55.188Z,9.29
2023-03-26T02:59:42.194Z,9.27
2023-03-26T03:02:40.364Z,9.20
2023-03-26T03:05:26.271Z,9.20
2023-03-26T03:08:12.170Z,9.19
2023-03-26T03:11:07.430Z,9.18
2023-03-26T03:13:46.307Z,9.17
2023-03-26T03:16:18.640Z,9.17
2023-03-26T03:18:49.161Z,9.16
2023-03-26T03:21:15.963Z,9.17
2023-03-26T03:23:43.655Z,9.15
2023-03-26T03:26:17.307Z,9.12
2023-03-26T03:29:15.945Z,9.15
2023-03-26T03:31:48.126Z,9.13
2023-03-26T03:34:30.460Z,9.11
2023-03-26T03:36:59.201Z,9.13
2023-03-26T03:39:35.608Z,9.15
2023-03-26T03:42:03.122Z,9.16
2023-03-26T03:44:30.140Z,9.18
2023-03-26T03:46:57.884Z,9.17
2023-03-26T03:49:28.194Z,9.16
2023-03-26T03:51:58.116Z,9.13
2023-03-26T03:54:31.872Z,9.13
2023-03-26T03:57:11.458Z,9.11
2023-03-26T04:00:10.303Z,9.10
2023-03-26T04:02:54.713Z,9.12
2023-03-26T04:05:27.291Z,9.11
2023-03-26T04:07:54.781Z,9.11
2023-03-26T04:10:31.288Z,9.10
2023-03-26T04:13:01.830Z,9.11
2023-03-26T04:15:57.472Z,9.13
2023-03-26T04:18:25.695Z,9.11
2023-03-26T04:20:52.422Z,9.14
2023-03-26T04:23:25.311Z,9.12
2023-03-26T04:26:18.406Z,9.11
2023-03-26T04:29:14.383Z,9.14
2023-03-26T04:31:42.398Z,9.14
2023-03-26T04:34:21.073Z,9.15
2023-03-26T04:36:56.784Z,9.16
2023-03-26T04:39:30.156Z,9.19
2023-03-26T04:42:21.104Z,9.19
2023-03-26T04:45:10.375Z,9.18
2023-03-26T04:47:39.188Z,9.18
2023-03-26T04:50:08.980Z,9.17
2023-03-26T04:52:39.187Z,9.16
2023-03-26T04:55:31.675Z,9.19
2023-03-26T04:58:06.306Z,9.19
2023-03-26T05:00:55.369Z,9.16
2023-03-26T05:03:23.583Z,9.16
2023-03-26T05:05:51.047Z,9.17
2023-03-26T05:08:20.125Z,9.17
2023-03-26T05:10:50.891Z,9.16
2023-03-26T05:13:26.404Z,9.14
2023-03-26T05:15:55.088Z,9.19
2023-03-26T05:18:38.200Z,9.18
2023-03-26T05:21:06.433Z,9.17
2023-03-26T05:23:34.332Z,9.18
2023-03-26T05:26:18.513Z,9.18
2023-03-26T05:28:45.682Z,9.18
2023-03-26T05:31:19.877Z,9.21
2023-03-26T05:33:50.227Z,9.27
2023-03-26T05:36:18.778Z,9.29
2023-03-26T05:39:05.573Z,9.35
2023-03-26T05:41:59.223Z,9.31
2023-03-26T05:44:37.800Z,9.34
2023-03-26T05:47:16.288Z,9.35
2023-03-26T05:49:44.764Z,9.42
2023-03-26T05:52:12.180Z,9.40
2023-03-26T05:54:59.951Z,9.40
2023-03-26T05:57:47.244Z,9.31
2023-03-26T06:00:48.021Z,9.32
2023-03-26T06:03:26.910Z,9.36
2023-03-26T06:06:10.014Z,9.41
2023-03-26T06:09:02.382Z,9.41
2023-03-26T06:11:33.150Z,9.41
2023-03-26T06:14:02.627Z,9.40
2023-03-26T06:16:30.085Z,9.42
2023-03-26T06:19:09.317Z,9.32
2023-03-26T06:21:48.436Z,9.30
2023-03-26T06:24:20.286Z,9.39
2023-03-26T06:26:59.294Z,9.46
2023-03-26T06:29:44.701Z,9.44
2023-03-26T06:32:20.374Z,9.26
2023-03-26T06:35:03.300Z,9.45
2023-03-26T06:37:30.307Z,9.51
2023-03-26T06:40:00.985Z,9.41
2023-03-26T06:43:07.633Z,9.42
2023-03-26T06:45:52.585Z,9.48
2023-03-26T06:48:31.713Z,9.50
2023-03-26T06:51:17.444Z,9.66
2023-03-26T06:54:03.781Z,9.67
2023-03-26T06:56:49.528Z,9.73
2023-03-26T06:59:25.689Z,9.76
2023-03-26T07:02:11.778Z,9.80
2023-03-26T07:04:58.597Z,9.99
2023-03-26T07:07:46.786Z,10.08
2023-03-26T07:10:33.478Z,10.22
2023-03-26T07:13:34.202Z,10.44
2023-03-26T07:16:40.086Z,10.54
2023-03-26T07:21:59.237Z,10.68
2023-03-26T07:24:45.099Z,10.85
2023-03-26T07:28:13.253Z,11.16
2023-03-26T07:31:19.103Z,11.29
2023-03-26T07:34:41.326Z,11.30
2023-03-26T07:38:04.613Z,11.14
2023-03-26T07:41:10.019Z,11.05
2023-03-26T07:44:15.475Z,11.08
2023-03-26T07:47:30.418Z,11.01
2023-03-26T07:50:25.071Z,11.18
2023-03-26T07:53:24.162Z,11.07
2023-03-26T07:56:20.504Z,11.08
2023-03-26T07:59:16.749Z,11.13
2023-03-26T08:02:25.219Z,11.22
2023-03-26T08:05:21.344Z,11.26
2023-03-26T08:08:18.939Z,11.16
2023-03-26T08:11:14.303Z,11.08
2023-03-26T08:14:08.357Z,11.18
2023-03-26T08:16:51.449Z,11.14
2023-03-26T08:19:33.096Z,11.11
2023-03-26T08:22:27.306Z,11.26
2023-03-26T08:25:14.164Z,11.33
2023-03-26T08:27:47.170Z,11.40
2023-03-26T08:30:16.728Z,11.53
2023-03-26T08:32:53.267Z,11.58
2023-03-26T08:35:20.046Z,11.61
2023-03-26T08:37:46.977Z,11.64
2023-03-26T08:40:36.159Z,11.74
2023-03-26T08:43:55.412Z,11.81
2023-03-26T08:46:40.562Z,11.91
2023-03-26T08:49:44.370Z,11.95
2023-03-26T08:52:37.074Z,12.03
2023-03-26T08:55:33.787Z,12.06
2023-03-26T08:58:36.248Z,12.10
2023-03-26T09:01:28.435Z,12.09
2023-03-26T09:04:34.223Z,12.13
2023-03-26T09:07:55.205Z,12.23
2023-03-26T09:10:46.539Z,12.40
2023-03-26T09:13:31.811Z,12.55
2023-03-26T09:16:26.272Z,12.71
2023-03-26T09:19:11.771Z,12.78
2023-03-26T09:22:07.151Z,12.81
2023-03-26T09:24:33.886Z,12.83
2023-03-26T09:27:29.310Z,12.87
2023-03-26T09:30:21.648Z,12.94
2023-03-26T09:33:04.002Z,12.93
2023-03-26T09:35:49.350Z,13.04
2023-03-26T09:38:35.004Z,13.09
2023-03-26T09:41:27.205Z,13.10
2023-03-26T09:44:21.286Z,13.11
2023-03-26T09:47:29.042Z,13.23
2023-03-26T09:50:14.682Z,13.42
2023-03-26T09:53:00.853Z,13.46
2023-03-26T09:56:08.889Z,13.47
2023-03-26T09:59:23.732Z,13.50
2023-03-26T10:01:57.271Z,13.55
2023-03-26T10:04:59.254Z,13.61
2023-03-26T10:07:56.345Z,13.65
2023-03-26T10:10:49.054Z,13.70
2023-03-26T10:13:48.256Z,13.71
2023-03-26T10:16:45.460Z,13.74
2023-03-26T10:19:27.465Z,13.81
2023-03-26T10:22:41.286Z,13.79
2023-03-26T10:25:29.528Z,13.80
2023-03-26T10:28:36.399Z,13.80
2023-03-26T10:31:06.038Z,13.80
2023-03-26T10:33:40.694Z,13.88
2023-03-26T10:36:55.197Z,13.94
2023-03-26T10:39:45.347Z,13.98
2023-03-26T10:42:36.577Z,14.02
2023-03-26T10:45:31.304Z,14.05
2023-03-26T10:48:30.958Z,14.06
2023-03-26T10:51:23.156Z,14.14
2023-03-26T10:53:57.482Z,14.20
2023-03-26T10:56:36.331Z,14.21
2023-03-26T10:59:11.909Z,14.35
2023-03-26T11:01:44.254Z,14.33
2023-03-26T11:04:25.882Z,14.46
2023-03-26T11:07:22.279Z,14.46
2023-03-26T11:09:58.337Z,14.51
2023-03-26T11:12:41.510Z,14.49
2023-03-26T11:15:40.365Z,14.55
2023-03-26T11:18:25.240Z,14.49
2023-03-26T11:21:18.037Z,14.58
2023-03-26T11:23:47.978Z,14.73
2023-03-26T11:26:35.073Z,14.83
2023-03-26T11:29:31.598Z,14.95
2023-03-26T11:32:12.170Z,15.01
2023-03-26T11:34:47.035Z,15.03
2023-03-26T11:37:54.049Z,14.95
2023-03-26T11:40:28.272Z,14.98
2023-03-26T11:43:02.226Z,15.11
2023-03-26T11:45:34.220Z,15.12
2023-03-26T11:48:15.484Z,15.12
2023-03-26T11:50:47.121Z,14.92
2023-03-26T11:53:17.984Z,14.99
2023-03-26T11:55:55.539Z,15.01
2023-03-26T11:58:32.259Z,15.00
2023-03-26T12:01:04.759Z,14.97
2023-03-26T12:03:31.801Z,14.98
2023-03-26T12:05:59.823Z,15.01
2023-03-26T12:08:39.634Z,15.04
2023-03-26T12:11:12.735Z,15.03
2023-03-26T12:13:39.677Z,14.92
2023-03-26T12:16:19.914Z,14.93
2023-03-26T12:19:02.219Z,14.97
2023-03-26T12:21:29.126Z,14.99
2023-03-26T12:24:05.532Z,14.99
2023-03-26T12:26:41.721Z,14.99
2023-03-26T12:29:19.117Z,14.99
2023-03-26T12:31:56.664Z,14.97
2023-03-26T12:34:30.574Z,14.95
2023-03-26T12:36:58.738Z,15.04
2023-03-26T12:40:07.851Z,15.08
2023-03-26T12:44:49.090Z,15.10
2023-03-26T12:45:37.642Z,15.20
2023-03-26T12:48:05.917Z,15.21
2023-03-26T12:51:32.869Z,15.21
2023-03-26T12:54:22.503Z,15.20
2023-03-26T12:57:16.033Z,15.19
2023-03-26T12:59:52.991Z,15.20
2023-03-26T13:02:58.723Z,15.37
2023-03-26T13:06:00.623Z,15.47
2023-03-26T13:08:30.575Z,15.59
2023-03-26T13:11:07.817Z,15.65
2023-03-26T13:13:58.964Z,15.57
2023-03-26T13:16:55.104Z,15.49
2023-03-26T13:19:44.155Z,15.45
2023-03-26T13:22:42.519Z,15.43
2023-03-26T13:25:26.765Z,15.43
2023-03-26T13:28:23.245Z,15.38
2023-03-26T13:31:09.326Z,15.36
2023-03-26T13:34:19.303Z,15.35
2023-03-26T13:37:22.256Z,15.39
2023-03-26T13:40:13.448Z,15.35
2023-03-26T13:43:11.564Z,15.34
2023-03-26T13:49:03.244Z,15.47
2023-03-26T13:51:40.099Z,15.38
2023-03-26T13:54:36.019Z,15.24
2023-03-26T13:57:10.303Z,15.19
2023-03-26T13:59:59.302Z,15.15
2023-03-26T14:02:35.613Z,15.22
2023-03-26T14:05:17.659Z,15.07
2023-03-26T14:07:50.714Z,14.92
2023-03-26T14:10:30.104Z,15.01
2023-03-26T14:13:07.356Z,14.95
2023-03-26T14:15:46.049Z,14.99
2023-03-26T14:18:35.077Z,15.03
2023-03-26T14:22:04.269Z,15.16
2023-03-26T14:24:43.238Z,15.16
2023-03-26T14:27:16.997Z,15.24
2023-03-26T14:30:14.768Z,15.22
2023-03-26T14:33:27.216Z,15.37
2023-03-26T14:36:04.568Z,15.38
2023-03-26T14:38:53.089Z,15.40
2023-03-26T14:41:27.906Z,15.33
2023-03-26T14:44:48.193Z,15.27
2023-03-26T14:47:22.240Z,15.32
2023-03-26T14:50:29.401Z,15.40
2023-03-26T14:53:03.514Z,15.27
2023-03-26T14:55:43.697Z,15.27
2023-03-26T14:58:22.770Z,15.33
2023-03-26T15:01:38.274Z,15.35
2023-03-26T15:04:17.556Z,15.37
2023-03-26T15:07:20.571Z,15.36
2023-03-26T15:10:23.979Z,15.43
2023-03-26T15:13:36.730Z,15.42
2023-03-26T15:16:26.229Z,15.35
2023-03-26T15:19:31.321Z,15.29
2023-03-26T15:22:19.989Z,15.32
2023-03-26T15:25:15.684Z,15.29
2023-03-26T15:27:49.347Z,15.27
2023-03-26T15:30:28.682Z,15.36
2023-03-26T15:33:37.100Z,15.36
2023-03-26T15:36:22.307Z,15.32
2023-03-26T15:39:02.509Z,15.32
2023-03-26T15:41:51.057Z,15.13
2023-03-26T15:44:27.663Z,14.97
2023-03-26T15:47:15.208Z,14.91
2023-03-26T15:50:00.577Z,14.90
2023-03-26T15:52:38.600Z,14.81
2023-03-26T15:55:21.029Z,14.76
2023-03-26T15:58:14.317Z,14.69
2023-03-26T16:00:58.429Z,14.57
2023-03-26T16:03:45.179Z,14.50
2023-03-26T16:06:40.702Z,14.44
2023-03-26T16:09:22.022Z,14.38
2023-03-26T16:12:00.504Z,14.33
2023-03-26T16:15:04.417Z,14.30
2023-03-26T16:18:10.417Z,14.22
2023-03-26T16:20:58.122Z,14.16
2023-03-26T16:23:51.172Z,14.08
2023-03-26T16:26:29.490Z,14.00
2023-03-26T16:29:15.082Z,13.95
2023-03-26T16:32:18.210Z,13.84
2023-03-26T16:35:00.518Z,13.76
2023-03-26T16:37:37.793Z,13.54
2023-03-26T16:40:18.348Z,13.44
2023-03-26T16:43:17.327Z,13.39
2023-03-26T16:45:44.907Z,13.32
2023-03-26T16:48:33.744Z,13.40
2023-03-26T16:51:51.260Z,13.36
2023-03-26T16:54:47.256Z,13.27
2023-03-26T16:57:27.093Z,13.25
2023-03-26T17:00:25.044Z,13.22
2023-03-26T17:03:11.642Z,13.22
2023-03-26T17:05:57.599Z,13.10
2023-03-26T17:08:48.731Z,12.91
2023-03-26T17:11:47.467Z,12.86
2023-03-26T17:14:46.140Z,12.83
2023-03-26T17:17:44.664Z,12.77
2023-03-26T17:20:37.402Z,12.71
2023-03-26T17:23:27.806Z,12.70
2023-03-26T17:26:12.789Z,12.64
2023-03-26T17:29:22.408Z,12.58
2023-03-26T17:32:13.829Z,12.51
2023-03-26T17:34:51.736Z,12.52
2023-03-26T17:37:22.249Z,12.52
2023-03-26T17:40:02.498Z,12.42
2023-03-26T17:42:33.008Z,12.42
2023-03-26T17:45:19.788Z,12.40
2023-03-26T17:47:47.680Z,12.38
2023-03-26T17:50:21.677Z,12.34
2023-03-26T17:52:52.505Z,12.29
2023-03-26T17:55:27.280Z,12.34
2023-03-26T17:57:59.582Z,12.34
2023-03-26T18:00:37.004Z,12.30
2023-03-26T18:03:20.778Z,12.31
2023-03-26T18:05:57.166Z,12.19
2023-03-26T18:08:50.169Z,12.16
2023-03-26T18:11:39.634Z,12.12
2023-03-26T18:14:46.402Z,12.13
2023-03-26T18:17:15.884Z,12.14
2023-03-26T18:19:54.705Z,12.12
2023-03-26T18:22:29.316Z,12.05
2023-03-26T18:25:01.271Z,12.00
2023-03-26T18:27:40.140Z,11.98
2023-03-26T18:30:18.054Z,11.98
2023-03-26T18:33:19.962Z,11.93
2023-03-26T18:35:54.882Z,11.88
2023-03-26T18:38:36.722Z,11.81
2023-03-26T18:41:08.425Z,11.78
2023-03-26T18:43:44.010Z,11.74
2023-03-26T18:46:15.155Z,11.70
2023-03-26T18:48:44.639Z,11.66
2023-03-26T18:51:13.525Z,11.63
2023-03-26T18:53:59.716Z,11.59
2023-03-26T18:56:32.545Z,11.64
2023-03-26T18:59:04.280Z,11.60
2023-03-26T19:01:37.417Z,11.57
2023-03-26T19:04:08.671Z,11.52
2023-03-26T19:06:42.295Z,11.52
2023-03-26T19:09:28.142Z,11.53
2023-03-26T19:12:20.866Z,11.54
2023-03-26T19:14:57.554Z,11.54
2023-03-26T19:17:32.631Z,11.45
2023-03-26T19:20:02.413Z,11.50
2023-03-26T19:22:31.402Z,11.49
2023-03-26T19:25:02.597Z,11.47
2023-03-26T19:27:31.101Z,11.50
2023-03-26T19:29:59.165Z,11.49
2023-03-26T19:32:31.663Z,11.44
2023-03-26T19:35:01.936Z,11.47
2023-03-26T19:37:31.922Z,11.43
2023-03-26T19:40:12.800Z,11.38
2023-03-26T19:46:01.744Z,11.29
2023-03-26T19:48:45.506Z,11.22
2023-03-26T19:51:45.778Z,11.19
2023-03-26T19:54:17.342Z,11.17
2023-03-26T19:56:45.640Z,11.18
2023-03-26T19:59:14.113Z,11.22
2023-03-26T20:01:43.971Z,11.21
2023-03-26T20:04:12.818Z,11.13
2023-03-26T20:07:35.557Z,11.15
2023-03-26T20:10:10.319Z,11.17
2023-03-26T20:12:38.773Z,11.20
2023-03-26T20:15:29.199Z,11.18
2023-03-26T20:17:57.096Z,11.08
2023-03-26T20:20:26.711Z,11.03
2023-03-26T20:22:55.358Z,11.04
2023-03-26T20:25:34.771Z,11.05
2023-03-26T20:28:05.820Z,11.09
2023-03-26T20:30:38.008Z,10.95
2023-03-26T20:33:12.128Z,10.90
2023-03-26T20:35:45.404Z,10.87
2023-03-26T20:38:14.857Z,10.89
2023-03-26T20:40:42.501Z,10.88
2023-03-26T20:43:14.053Z,10.99
2023-03-26T20:45:41.842Z,10.94
2023-03-26T20:48:09.683Z,11.02
2023-03-26T20:50:49.998Z,11.05
2023-03-26T20:53:18.038Z,11.05
2023-03-26T20:55:46.322Z,11.08
2023-03-26T20:58:15.617Z,11.03
2023-03-26T21:00:42.964Z,11.00
2023-03-26T21:03:16.172Z,11.01
2023-03-26T21:05:45.656Z,10.86
2023-03-26T21:08:18.508Z,10.94
2023-03-26T21:10:47.611Z,10.94
2023-03-26T21:13:23.147Z,10.87
2023-03-26T21:15:54.229Z,10.74
2023-03-26T21:18:21.377Z,10.75
2023-03-26T21:21:21.522Z,10.75
2023-03-26T21:24:17.728Z,10.73
2023-03-26T21:26:48.348Z,10.72
2023-03-26T21:29:16.030Z,10.59
2023-03-26T21:31:45.071Z,10.68
2023-03-26T21:34:13.332Z,10.69
2023-03-26T21:36:40.538Z,10.58
2023-03-26T21:39:09.370Z,10.63
2023-03-26T21:41:47.783Z,10.59
2023-03-26T21:44:16.501Z,10.57
2023-03-26T21:46:45.356Z,10.59
2023-03-26T21:49:14.231Z,10.60
2023-03-26T21:51:43.722Z,10.57
2023-03-26T21:54:28.083Z,10.55
2023-03-26T21:57:07.286Z,10.62
2023-03-26T21:59:47.044Z,10.65
2023-03-26T22:02:48.327Z,10.61
2023-03-26T22:05:25.335Z,10.65
2023-03-26T22:08:05.403Z,10.68
2023-03-26T22:10:57.918Z,10.57
2023-03-26T22:13:26.336Z,10.67
2023-03-26T22:15:53.881Z,10.64
2023-03-26T22:18:21.887Z,10.70
2023-03-26T22:20:49.857Z,10.69
2023-03-26T22:23:16.809Z,10.68
2023-03-26T22:25:43.959Z,10.65
2023-03-26T22:28:10.959Z,10.65
2023-03-26T22:30:38.222Z,10.68
2023-03-26T22:33:06.473Z,10.70
2023-03-26T22:35:33.929Z,10.63
2023-03-26T22:38:01.281Z,10.65
2023-03-26T22:40:30.386Z,10.68
2023-03-26T22:42:57.256Z,10.65
2023-03-26T22:45:24.841Z,10.63
2023-03-26T22:47:52.284Z,10.66
2023-03-26T22:50:33.027Z,10.67
2023-03-26T22:53:00.415Z,10.67
2023-03-26T22:55:29.572Z,10.64
2023-03-26T22:57:57.326Z,10.67
2023-03-26T23:00:25.634Z,10.68
2023-03-26T23:02:52.544Z,10.70
2023-03-26T23:05:19.955Z,10.68
2023-03-26T23:07:47.481Z,10.67
2023-03-26T23:10:14.882Z,10.65
2023-03-26T23:12:41.669Z,10.67
2023-03-26T23:15:10.334Z,10.62
2023-03-26T23:17:38.503Z,10.60
2023-03-26T23:20:07.637Z,10.60
2023-03-26T23:22:34.433Z,10.55
2023-03-26T23:25:01.936Z,10.52
2023-03-26T23:27:29.089Z,10.49
2023-03-26T23:29:55.921Z,10.45
2023-03-26T23:32:23.642Z,10.47
2023-03-26T23:34:52.842Z,10.48
2023-03-26T23:37:20.141Z,10.47
2023-03-26T23:39:47.004Z,10.46
2023-03-26T23:42:13.711Z,10.44
2023-03-26T23:44:41.399Z,10.44
2023-03-26T23:47:08.483Z,10.43
2023-03-26T23:49:35.303Z,10.42
2023-03-26T23:52:02.371Z,10.46
2023-03-26T23:54:29.107Z,10.43
2023-03-26T23:56:59.818Z,10.43
